createdAt,value
2023-10-29T00:01:05.477Z,100031.97
2023-10-29T00:03:34.280Z,100029.00
2023-10-29T00:06:01.749Z,100034.56
2023-10-29T00:08:29.460Z,100036.13
2023-10-29T00:10:57.417Z,100031.59
2023-10-29T00:13:26.362Z,100038.56
2023-10-29T00:15:54.035Z,100037.72
2023-10-29T00:18:22.210Z,100041.63
2023-10-29T00:20:49.936Z,100036.69
2023-10-29T00:23:17.934Z,100036.78
2023-10-29T00:25:45.935Z,100035.75
2023-10-29T00:28:13.687Z,100035.28
2023-10-29T00:30:41.364Z,100030.31
2023-10-29T00:33:09.467Z,100034.31
2023-10-29T00:35:37.805Z,100034.84
2023-10-29T00:38:05.762Z,100030.47
2023-10-29T00:40:39.027Z,100029.63
2023-10-29T00:43:06.382Z,100028.81
2023-10-29T00:45:34.664Z,100036.44
2023-10-29T00:48:02.483Z,100031.31
2023-10-29T00:50:30.553Z,100026.69
2023-10-29T00:52:59.000Z,100028.81
2023-10-29T00:55:26.922Z,100020.97
2023-10-29T00:57:54.841Z,100026.06
2023-10-29T01:00:24.627Z,100024.66
2023-10-29T01:02:56.078Z,100019.19
2023-10-29T01:05:24.204Z,100018.88
2023-10-29T01:07:52.531Z,100014.28
2023-10-29T01:10:22.470Z,100016.03
2023-10-29T01:12:51.586Z,99995.44
2023-10-29T01:15:19.301Z,99996.19
2023-10-29T01:17:48.067Z,99998.12
2023-10-29T01:20:18.034Z,99997.47
2023-10-29T01:22:45.795Z,99996.91
2023-10-29T01:25:13.703Z,100002.84
2023-10-29T01:27:42.024Z,100014.94
2023-10-29T01:30:11.667Z,100012.91
2023-10-29T01:32:39.987Z,100015.31
2023-10-29T01:35:08.373Z,100016.03
2023-10-29T01:37:35.650Z,100013.37
2023-10-29T01:40:03.778Z,100023.75
2023-10-29T01:42:31.988Z,100031.62
2023-10-29T01:45:01.873Z,100033.00
2023-10-29T01:47:34.666Z,100026.44
2023-10-29T01:50:02.725Z,100023.41
2023-10-29T01:52:30.543Z,100029.72
2023-10-29T01:54:58.795Z,100029.25
2023-10-29T01:57:26.763Z,100034.59
2023-10-29T01:59:54.604Z,100027.75
2023-10-29T02:02:26.508Z,100045.91
2023-10-29T02:04:55.055Z,100041.16
2023-10-29T02:07:24.943Z,100047.94
2023-10-29T02:09:52.611Z,100040.50
2023-10-29T02:12:22.396Z,100049.69
2023-10-29T02:14:56.123Z,100046.00
2023-10-29T02:17:26.276Z,100048.22
2023-10-29T02:19:56.533Z,100042.12
2023-10-29T02:22:30.600Z,100045.44
2023-10-29T02:24:58.273Z,100053.59
2023-10-29T02:27:26.256Z,100047.78
2023-10-29T02:29:55.522Z,100055.91
2023-10-29T02:32:31.391Z,100049.09
2023-10-29T02:35:04.619Z,100058.16
2023-10-29T02:37:34.071Z,100047.75
2023-10-29T02:40:02.894Z,100057.34
2023-10-29T02:42:30.504Z,100059.69
2023-10-29T02:45:00.078Z,100070.56
2023-10-29T02:47:27.694Z,100068.44
2023-10-29T02:49:55.400Z,100066.47
2023-10-29T02:52:23.118Z,100062.19
2023-10-29T02:54:51.044Z,100059.22
2023-10-29T02:57:18.744Z,100060.84
2023-10-29T02:59:46.029Z,100047.44
2023-10-29T03:02:13.502Z,100049.66
2023-10-29T03:04:42.913Z,100046.06
2023-10-29T03:07:12.268Z,100044.66
2023-10-29T03:09:41.974Z,100048.56
2023-10-29T03:12:10.625Z,100062.00
2023-10-29T03:14:37.767Z,100060.16
2023-10-29T03:17:05.694Z,100057.87
2023-10-29T03:19:34.504Z,100058.78
2023-10-29T03:22:05.782Z,100061.28
2023-10-29T03:24:34.865Z,100064.53
2023-10-29T03:27:02.161Z,100061.16
2023-10-29T03:29:31.145Z,100059.16
2023-10-29T03:31:58.631Z,100064.19
2023-10-29T03:34:27.570Z,100066.47
2023-10-29T03:36:56.963Z,100053.19
2023-10-29T03:39:25.919Z,100069.88
2023-10-29T03:41:53.133Z,100065.41
2023-10-29T03:44:20.552Z,100067.34
2023-10-29T03:46:52.696Z,100062.50
2023-10-29T03:49:20.276Z,100068.13
2023-10-29T03:51:48.301Z,100058.19
2023-10-29T03:54:15.978Z,100067.22
2023-10-29T03:56:43.314Z,100058.16
2023-10-29T03:59:11.913Z,100064.56
2023-10-29T04:01:39.123Z,100050.97
2023-10-29T04:04:08.681Z,100056.44
2023-10-29T04:06:36.478Z,100041.28
2023-10-29T04:09:03.907Z,100034.78
2023-10-29T04:11:31.559Z,100043.84
2023-10-29T04:13:59.224Z,100040.59
2023-10-29T04:16:28.810Z,100038.72
2023-10-29T04:18:58.273Z,100035.66
2023-10-29T04:21:25.429Z,100036.72
2023-10-29T04:23:54.569Z,100047.44
2023-10-29T04:26:21.980Z,100049.53
2023-10-29T04:28:50.385Z,100054.06
2023-10-29T04:31:17.638Z,100051.25
2023-10-29T04:33:49.700Z,100052.84
2023-10-29T04:36:26.141Z,100051.56
2023-10-29T04:38:53.644Z,100053.41
2023-10-29T04:41:20.829Z,100043.69
2023-10-29T04:43:49.131Z,100049.47
2023-10-29T04:46:17.293Z,100052.69
2023-10-29T04:48:45.199Z,100057.87
2023-10-29T04:51:12.348Z,100053.63
2023-10-29T04:53:40.465Z,100049.84
2023-10-29T04:56:07.629Z,100054.22
2023-10-29T04:58:34.840Z,100063.87
2023-10-29T05:01:04.115Z,100060.72
2023-10-29T05:03:31.373Z,100057.03
2023-10-29T05:05:58.587Z,100048.56
2023-10-29T05:08:25.999Z,100059.62
2023-10-29T05:10:53.116Z,100056.47
2023-10-29T05:13:21.265Z,100055.19
2023-10-29T05:15:48.694Z,100059.28
2023-10-29T05:18:17.540Z,100060.28
2023-10-29T05:20:44.894Z,100049.31
2023-10-29T05:23:12.413Z,100048.78
2023-10-29T05:25:40.866Z,100067.97
2023-10-29T05:28:08.139Z,100074.06
2023-10-29T05:30:37.684Z,100056.75
2023-10-29T05:33:04.958Z,100060.31
2023-10-29T05:35:32.760Z,100069.41
2023-10-29T05:38:00.282Z,100075.97
2023-10-29T05:40:27.439Z,100077.75
2023-10-29T05:42:56.096Z,100076.62
2023-10-29T05:45:23.706Z,100088.69
2023-10-29T05:47:51.448Z,100085.16
2023-10-29T05:50:18.700Z,100086.41
2023-10-29T05:52:50.363Z,100090.69
2023-10-29T05:55:21.088Z,100092.34
2023-10-29T05:57:48.901Z,100090.47
2023-10-29T06:00:16.562Z,100095.63
2023-10-29T06:02:44.602Z,100088.44
2023-10-29T06:05:12.407Z,100102.44
2023-10-29T06:07:44.320Z,100098.44
2023-10-29T06:10:14.121Z,100099.31
2023-10-29T06:12:42.380Z,100099.72
2023-10-29T06:15:11.336Z,100107.19
2023-10-29T06:17:42.841Z,100113.09
2023-10-29T06:20:12.625Z,100107.97
2023-10-29T06:22:40.099Z,100113.41
2023-10-29T06:25:09.441Z,100124.41
2023-10-29T06:27:36.801Z,100125.41
2023-10-29T06:30:05.510Z,100121.69
2023-10-29T06:32:35.622Z,100121.19
2023-10-29T06:35:04.158Z,100125.91
2023-10-29T06:37:31.591Z,100123.66
2023-10-29T06:39:59.305Z,100116.38
2023-10-29T06:42:28.732Z,100123.25
2023-10-29T06:44:56.167Z,100125.16
2023-10-29T06:47:23.354Z,100127.69
2023-10-29T06:49:53.850Z,100131.34
2023-10-29T06:52:21.292Z,100143.91
2023-10-29T06:54:49.103Z,100144.75
2023-10-29T06:57:16.825Z,100143.88
2023-10-29T06:59:46.238Z,100144.06
2023-10-29T07:02:13.564Z,100153.59
2023-10-29T07:04:41.222Z,100148.53
2023-10-29T07:07:09.041Z,100153.28
2023-10-29T07:09:36.326Z,100149.59
2023-10-29T07:12:04.738Z,100148.53
2023-10-29T07:14:33.412Z,100151.63
2023-10-29T07:17:00.572Z,100153.84
2023-10-29T07:19:28.200Z,100149.88
2023-10-29T07:21:55.602Z,100143.50
2023-10-29T07:24:22.745Z,100146.19
2023-10-29T07:26:50.152Z,100148.91
2023-10-29T07:29:19.162Z,100141.28
2023-10-29T07:31:46.495Z,100140.72
2023-10-29T07:34:14.820Z,100140.44
2023-10-29T07:36:44.176Z,100142.03
2023-10-29T07:39:12.049Z,100137.38
2023-10-29T07:41:39.775Z,100138.53
2023-10-29T07:44:07.503Z,100138.44
2023-10-29T07:46:35.147Z,100141.03
2023-10-29T07:49:03.954Z,100138.75
2023-10-29T07:51:31.922Z,100130.44
2023-10-29T07:54:02.360Z,100143.22
2023-10-29T07:56:30.035Z,100134.53
2023-10-29T07:58:57.519Z,100135.56
2023-10-29T08:01:24.757Z,100129.38
2023-10-29T08:03:57.142Z,100129.94
2023-10-29T08:06:24.517Z,100128.50
2023-10-29T08:08:54.210Z,100133.88
2023-10-29T08:11:22.150Z,100132.94
2023-10-29T08:13:49.469Z,100131.25
2023-10-29T08:16:16.890Z,100128.31
2023-10-29T08:18:44.782Z,100129.75
2023-10-29T08:21:12.154Z,100138.41
2023-10-29T08:23:42.765Z,100138.75
2023-10-29T08:26:10.399Z,100121.00
2023-10-29T08:28:37.512Z,100122.34
2023-10-29T08:31:05.492Z,100129.00
2023-10-29T08:33:33.482Z,100132.94
2023-10-29T08:36:00.873Z,100133.41
2023-10-29T08:38:28.399Z,100137.47
2023-10-29T08:40:56.207Z,100132.22
2023-10-29T08:43:23.465Z,100133.03
2023-10-29T08:45:51.126Z,100134.69
2023-10-29T08:48:19.077Z,100139.22
2023-10-29T08:50:46.434Z,100141.13
2023-10-29T08:53:14.496Z,100134.69
2023-10-29T08:55:42.171Z,100144.12
2023-10-29T08:58:10.837Z,100136.47
2023-10-29T09:00:46.372Z,100134.63
2023-10-29T09:03:15.944Z,100134.22
2023-10-29T09:05:44.356Z,100136.59
2023-10-29T09:08:12.197Z,100133.97
2023-10-29T09:10:43.650Z,100139.22
2023-10-29T09:13:13.636Z,100141.41
2023-10-29T09:15:41.032Z,100130.28
2023-10-29T09:18:08.264Z,100135.81
2023-10-29T09:20:37.381Z,100130.22
2023-10-29T09:23:06.144Z,100131.41
2023-10-29T09:25:33.916Z,100124.78
2023-10-29T09:28:06.126Z,100123.50
2023-10-29T09:30:34.360Z,100127.16
2023-10-29T09:33:02.881Z,100118.59
2023-10-29T09:35:30.383Z,100128.81
2023-10-29T09:37:58.017Z,100116.78
2023-10-29T09:40:27.666Z,100118.69
2023-10-29T09:42:57.108Z,100107.50
2023-10-29T09:45:28.224Z,100113.31
2023-10-29T09:47:59.947Z,100115.78
2023-10-29T09:50:27.556Z,100108.84
2023-10-29T09:52:55.801Z,100096.41
2023-10-29T09:55:26.449Z,100109.50
2023-10-29T09:57:53.841Z,100100.28
2023-10-29T10:00:21.022Z,100106.47
2023-10-29T10:02:53.162Z,100098.44
2023-10-29T10:05:22.427Z,100099.66
2023-10-29T10:07:50.549Z,100088.22
2023-10-29T10:10:18.070Z,100095.03
2023-10-29T10:12:49.948Z,100100.00
2023-10-29T10:15:20.845Z,100097.53
2023-10-29T10:18:16.457Z,100099.62
2023-10-29T10:20:58.046Z,100088.69
2023-10-29T10:23:25.179Z,100090.91
2023-10-29T10:26:00.232Z,100082.59
2023-10-29T10:28:27.866Z,100080.34
2023-10-29T10:30:55.608Z,100094.06
2023-10-29T10:33:23.694Z,100080.87
2023-10-29T10:35:52.605Z,100074.78
2023-10-29T10:38:21.446Z,100077.25
2023-10-29T10:40:58.839Z,100080.00
2023-10-29T10:43:28.028Z,100067.66
2023-10-29T10:45:56.225Z,100070.47
2023-10-29T10:48:26.348Z,100078.59
2023-10-29T10:50:55.409Z,100067.87
2023-10-29T10:53:25.221Z,100071.22
2023-10-29T10:56:03.303Z,100068.66
2023-10-29T10:58:32.590Z,100064.25
2023-10-29T11:01:00.401Z,100070.94
2023-10-29T11:03:33.062Z,100067.72
2023-10-29T11:06:04.220Z,100069.53
2023-10-29T11:08:32.691Z,100063.78
2023-10-29T11:11:00.744Z,100081.94
2023-10-29T11:13:28.480Z,100065.56
2023-10-29T11:15:56.714Z,100065.19
2023-10-29T11:18:33.631Z,100060.22
2023-10-29T11:21:05.127Z,100057.19
2023-10-29T11:23:33.799Z,100060.81
2023-10-29T11:26:31.668Z,100053.28
2023-10-29T11:28:59.117Z,100050.50
2023-10-29T11:31:26.652Z,100058.78
2023-10-29T11:33:56.684Z,100057.44
2023-10-29T11:36:30.903Z,100053.87
2023-10-29T11:39:16.270Z,100043.66
2023-10-29T11:41:49.117Z,100045.31
2023-10-29T11:44:23.779Z,100041.09
2023-10-29T11:46:57.614Z,100035.44
2023-10-29T11:49:27.158Z,100036.03
2023-10-29T11:52:02.846Z,100039.88
2023-10-29T11:54:38.662Z,100033.41
2023-10-29T11:57:06.857Z,100027.69
2023-10-29T11:59:57.110Z,100024.09
2023-10-29T12:02:26.113Z,100023.69
2023-10-29T12:04:55.481Z,100021.47
2023-10-29T12:07:33.134Z,100021.47
2023-10-29T12:10:01.698Z,100028.19
2023-10-29T12:12:31.179Z,100025.88
2023-10-29T12:14:58.327Z,100028.62
2023-10-29T12:17:26.020Z,100017.81
2023-10-29T12:19:53.269Z,100014.34
2023-10-29T12:22:20.336Z,100012.19
2023-10-29T12:24:56.560Z,100011.03
2023-10-29T12:27:24.156Z,100011.09
2023-10-29T12:29:52.209Z,100001.03
2023-10-29T12:32:23.581Z,100017.03
2023-10-29T12:34:59.419Z,100012.12
2023-10-29T12:37:31.250Z,100015.41
2023-10-29T12:40:03.019Z,100009.53
2023-10-29T12:42:53.300Z,100008.38
2023-10-29T12:45:28.231Z,100007.53
2023-10-29T12:48:12.475Z,99999.28
2023-10-29T12:50:54.376Z,100006.22
2023-10-29T12:53:25.306Z,99995.88
2023-10-29T12:55:53.128Z,99995.03
2023-10-29T12:58:21.370Z,99997.53
2023-10-29T13:00:48.881Z,99995.66
2023-10-29T13:03:16.154Z,99991.72
2023-10-29T13:05:43.399Z,99988.06
2023-10-29T13:08:13.690Z,99980.94
2023-10-29T13:10:44.495Z,99980.16
2023-10-29T13:13:17.678Z,99985.78
2023-10-29T13:15:44.897Z,99985.31
2023-10-29T13:18:13.244Z,99993.06
2023-10-29T13:20:41.376Z,99998.09
2023-10-29T13:23:09.020Z,99992.19
2023-10-29T13:25:38.002Z,99995.97
2023-10-29T13:28:05.549Z,99999.47
2023-10-29T13:30:34.547Z,99994.03
2023-10-29T13:33:02.631Z,99999.94
2023-10-29T13:35:29.824Z,99997.16
2023-10-29T13:37:57.498Z,99999.47
2023-10-29T13:40:26.808Z,100000.59
2023-10-29T13:42:55.841Z,100000.13
2023-10-29T13:45:23.849Z,99993.50
2023-10-29T13:47:52.294Z,99996.13
2023-10-29T13:50:20.255Z,99994.81
2023-10-29T13:52:48.936Z,99984.88
2023-10-29T13:55:21.146Z,99986.19
2023-10-29T13:57:48.435Z,99986.66
2023-10-29T14:00:17.470Z,99982.16
2023-10-29T14:02:46.438Z,99978.69
2023-10-29T14:05:13.640Z,99990.34
2023-10-29T14:07:41.489Z,100001.53
2023-10-29T14:10:09.718Z,99994.06
2023-10-29T14:12:37.387Z,100001.00
2023-10-29T14:15:07.621Z,99987.16
2023-10-29T14:17:35.616Z,99985.00
2023-10-29T14:20:05.109Z,99996.38
2023-10-29T14:22:32.794Z,99993.00
2023-10-29T14:25:02.678Z,99995.31
2023-10-29T14:27:30.624Z,99997.75
2023-10-29T14:29:58.079Z,99995.84
2023-10-29T14:32:26.236Z,99992.72
2023-10-29T14:34:53.886Z,99987.97
2023-10-29T14:37:24.245Z,99992.41
2023-10-29T14:40:00.608Z,99991.91
2023-10-29T14:42:31.104Z,99996.06
2023-10-29T14:44:58.840Z,100000.00
2023-10-29T14:47:26.021Z,99990.41
2023-10-29T14:49:53.427Z,99997.94
2023-10-29T14:52:20.878Z,99994.94
2023-10-29T14:54:48.236Z,99994.75
2023-10-29T14:57:28.466Z,99991.94
2023-10-29T14:59:58.358Z,99992.59
2023-10-29T15:02:26.323Z,99996.06
2023-10-29T15:04:56.729Z,99991.59
2023-10-29T15:07:25.086Z,100000.13
2023-10-29T15:09:53.228Z,100000.56
2023-10-29T15:12:21.966Z,100000.91
2023-10-29T15:14:49.891Z,100000.84
2023-10-29T15:17:21.028Z,99990.53
2023-10-29T15:19:55.357Z,99983.91
2023-10-29T15:22:22.833Z,99991.97
2023-10-29T15:24:51.163Z,99986.47
2023-10-29T15:27:19.144Z,99977.53
2023-10-29T15:29:47.992Z,99984.88
2023-10-29T15:32:15.360Z,99969.94
2023-10-29T15:34:43.817Z,99973.84
2023-10-29T15:37:11.327Z,99984.16
2023-10-29T15:39:41.570Z,99980.84
2023-10-29T15:42:09.860Z,99976.31
2023-10-29T15:44:37.403Z,99982.56
2023-10-29T15:47:05.076Z,99984.78
2023-10-29T15:49:32.951Z,99986.72
2023-10-29T15:52:03.039Z,99986.06
2023-10-29T15:54:30.674Z,99989.66
2023-10-29T15:56:57.907Z,99984.84
2023-10-29T15:59:25.969Z,100000.97
2023-10-29T16:01:53.608Z,100001.72
2023-10-29T16:04:21.263Z,100016.97
2023-10-29T16:06:49.480Z,100016.44
2023-10-29T16:09:16.869Z,100015.44
2023-10-29T16:11:48.297Z,100016.19
2023-10-29T16:14:16.012Z,100027.41
2023-10-29T16:16:47.373Z,100013.19
2023-10-29T16:19:14.835Z,100011.81
2023-10-29T16:21:44.708Z,100019.00
2023-10-29T16:24:11.915Z,100024.16
2023-10-29T16:26:39.578Z,100032.84
2023-10-29T16:29:06.887Z,100025.78
2023-10-29T16:31:34.542Z,100022.63
2023-10-29T16:34:02.173Z,100024.78
2023-10-29T16:36:30.335Z,100022.34
2023-10-29T16:38:59.886Z,100021.09
2023-10-29T16:41:29.445Z,100024.28
2023-10-29T16:43:57.432Z,100033.66
2023-10-29T16:46:30.924Z,100024.81
2023-10-29T16:49:02.610Z,100026.59
2023-10-29T16:51:31.032Z,100026.28
2023-10-29T16:53:58.774Z,100030.56
2023-10-29T16:56:26.046Z,100033.91
2023-10-29T16:58:53.178Z,100034.31
2023-10-29T17:01:21.397Z,100027.41
2023-10-29T17:03:49.995Z,100031.94
2023-10-29T17:06:19.006Z,100035.25
2023-10-29T17:08:48.058Z,100042.47
2023-10-29T17:11:16.821Z,100042.72
2023-10-29T17:13:44.031Z,100035.91
2023-10-29T17:16:11.974Z,100033.28
2023-10-29T17:18:41.546Z,100036.91
2023-10-29T17:21:18.984Z,100038.56
2023-10-29T17:23:54.922Z,100036.75
2023-10-29T17:26:22.254Z,100040.50
2023-10-29T17:28:51.310Z,100032.78
2023-10-29T17:31:20.018Z,100042.34
2023-10-29T17:33:47.298Z,100037.03
2023-10-29T17:36:17.673Z,100032.72
2023-10-29T17:38:45.494Z,100034.78
2023-10-29T17:41:18.947Z,100053.47
2023-10-29T17:43:47.455Z,100036.63
2023-10-29T17:46:18.602Z,100051.16
2023-10-29T17:48:48.277Z,100044.50
2023-10-29T17:51:16.590Z,100047.25
2023-10-29T17:53:48.210Z,100048.38
2023-10-29T17:56:17.866Z,100043.81
2023-10-29T17:58:54.761Z,100041.63
2023-10-29T18:01:23.751Z,100040.09
2023-10-29T18:03:55.357Z,100044.56
2023-10-29T18:06:24.200Z,100042.09
2023-10-29T18:08:53.251Z,100043.59
2023-10-29T18:11:22.421Z,100040.41
2023-10-29T18:13:49.813Z,100059.22
2023-10-29T18:16:19.066Z,100049.53
2023-10-29T18:18:50.762Z,100050.50
2023-10-29T18:21:18.334Z,100056.31
2023-10-29T18:23:47.997Z,100058.81
2023-10-29T18:26:15.362Z,100051.06
2023-10-29T18:28:43.164Z,100059.94
2023-10-29T18:31:12.875Z,100053.13
2023-10-29T18:33:45.409Z,100052.19
2023-10-29T18:36:15.436Z,100044.72
2023-10-29T18:38:43.183Z,100047.50
2023-10-29T18:41:14.381Z,100054.13
2023-10-29T18:43:48.710Z,100047.09
2023-10-29T18:46:19.873Z,100044.28
2023-10-29T18:48:47.505Z,100053.03
2023-10-29T18:51:20.433Z,100048.31
2023-10-29T18:53:47.897Z,100050.25
2023-10-29T18:56:16.066Z,100052.72
2023-10-29T18:58:54.242Z,100047.47
2023-10-29T19:01:22.272Z,100045.94
2023-10-29T19:03:51.166Z,100044.97
2023-10-29T19:06:22.195Z,100046.91
2023-10-29T19:08:50.915Z,100038.88
2023-10-29T19:11:18.079Z,100045.53
2023-10-29T19:13:45.575Z,100031.19
2023-10-29T19:16:13.361Z,100046.34
2023-10-29T19:18:43.324Z,100041.66
2023-10-29T19:21:11.424Z,100032.84
2023-10-29T19:23:38.949Z,100035.75
2023-10-29T19:26:09.352Z,100040.59
2023-10-29T19:28:36.637Z,100037.25
2023-10-29T19:31:23.943Z,100030.34
2023-10-29T19:33:56.007Z,100037.91
2023-10-29T19:36:24.017Z,100042.75
2023-10-29T19:38:52.972Z,100063.03
2023-10-29T19:41:26.141Z,100047.28
2023-10-29T19:43:56.647Z,100049.06
2023-10-29T19:46:23.978Z,100054.97
2023-10-29T19:48:54.554Z,100057.59
2023-10-29T19:51:25.611Z,100058.03
2023-10-29T19:53:52.850Z,100060.38
2023-10-29T19:56:23.614Z,100056.47
2023-10-29T19:58:51.898Z,100057.06
2023-10-29T20:01:23.754Z,100062.25
2023-10-29T20:03:51.454Z,100068.63
2023-10-29T20:06:19.380Z,100063.59
2023-10-29T20:08:47.060Z,100057.78
2023-10-29T20:11:18.181Z,100055.50
2023-10-29T20:13:51.811Z,100046.91
2023-10-29T20:16:19.286Z,100049.34
2023-10-29T20:18:47.854Z,100047.00
2023-10-29T20:21:19.907Z,100041.66
2023-10-29T20:23:52.962Z,100030.59
2023-10-29T20:26:20.839Z,100032.25
2023-10-29T20:28:53.168Z,100035.00
2023-10-29T20:31:20.711Z,100026.31
2023-10-29T20:33:48.067Z,100023.69
2023-10-29T20:36:16.024Z,100024.00
2023-10-29T20:38:43.400Z,100032.19
2023-10-29T20:41:11.906Z,100036.91
2023-10-29T20:43:39.673Z,100031.75
2023-10-29T20:46:09.986Z,100041.34
2023-10-29T20:48:38.626Z,100040.44
2023-10-29T20:51:06.314Z,100038.50
2023-10-29T20:53:34.045Z,100027.09
2023-10-29T20:56:08.097Z,100032.06
2023-10-29T20:58:44.467Z,100029.34
2023-10-29T21:01:13.786Z,100023.72
2023-10-29T21:03:41.445Z,100037.72
2023-10-29T21:06:08.804Z,100036.00
2023-10-29T21:08:36.190Z,100032.94
2023-10-29T21:11:09.584Z,100029.78
2023-10-29T21:13:36.973Z,100027.97
2023-10-29T21:16:08.704Z,100029.81
2023-10-29T21:18:36.597Z,100029.25
2023-10-29T21:21:04.861Z,100034.19
2023-10-29T21:23:33.051Z,100039.75
2023-10-29T21:26:00.376Z,100038.91
2023-10-29T21:28:29.868Z,100046.94
2023-10-29T21:30:57.530Z,100042.50
2023-10-29T21:33:25.358Z,100044.84
2023-10-29T21:35:59.150Z,100045.09
2023-10-29T21:38:27.741Z,100045.50
2023-10-29T21:40:55.174Z,100057.06
2023-10-29T21:43:24.772Z,100060.16
2023-10-29T21:45:52.185Z,100056.03
2023-10-29T21:48:20.239Z,100050.25
2023-10-29T21:50:55.344Z,100054.37
2023-10-29T21:53:24.006Z,100045.59
2023-10-29T21:55:52.278Z,100051.00
2023-10-29T21:58:19.445Z,100043.13
2023-10-29T22:00:53.936Z,100051.81
2023-10-29T22:03:21.545Z,100053.13
2023-10-29T22:05:59.907Z,100048.69
2023-10-29T22:08:28.261Z,100044.97
2023-10-29T22:11:00.190Z,100045.25
2023-10-29T22:13:30.911Z,100042.47
2023-10-29T22:16:12.279Z,100043.81
2023-10-29T22:18:40.615Z,100044.72
2023-10-29T22:21:12.772Z,100036.44
2023-10-29T22:23:41.382Z,100035.84
2023-10-29T22:26:09.609Z,100036.16
2023-10-29T22:28:40.418Z,100033.81
2023-10-29T22:31:08.076Z,100030.78
2023-10-29T22:33:35.357Z,100031.34
2023-10-29T22:36:04.952Z,100024.56
2023-10-29T22:38:32.628Z,100022.34
2023-10-29T22:41:07.648Z,100025.38
2023-10-29T22:43:35.807Z,100028.16
2023-10-29T22:46:03.676Z,100026.47
2023-10-29T22:48:31.308Z,100030.63
2023-10-29T22:51:02.853Z,100035.75
2023-10-29T22:53:30.525Z,100037.37
2023-10-29T22:56:01.505Z,100041.41
2023-10-29T22:58:29.571Z,100037.56
2023-10-29T23:00:57.130Z,100042.81
2023-10-29T23:03:25.740Z,100048.59
2023-10-29T23:05:53.786Z,100047.78
2023-10-29T23:08:21.454Z,100049.53
2023-10-29T23:10:50.082Z,100045.84
2023-10-29T23:13:18.670Z,100043.63
2023-10-29T23:15:46.322Z,100037.13
2023-10-29T23:18:14.057Z,100044.03
2023-10-29T23:20:41.529Z,100043.06
2023-10-29T23:23:16.652Z,100045.00
2023-10-29T23:25:45.887Z,100048.88
2023-10-29T23:28:23.062Z,100043.75
2023-10-29T23:31:01.534Z,100039.06
2023-10-29T23:33:29.360Z,100043.63
2023-10-29T23:35:56.643Z,100049.84
2023-10-29T23:38:24.743Z,100047.19
2023-10-29T23:40:51.905Z,100052.47
2023-10-29T23:43:19.030Z,100040.44
2023-10-29T23:45:46.993Z,100044.28
2023-10-29T23:48:14.668Z,100047.22
2023-10-29T23:50:41.953Z,100042.50
2023-10-29T23:53:09.903Z,100044.28
2023-10-29T23:55:37.053Z,100051.22
2023-10-29T23:58:04.656Z,100046.81
